createdAt,value
2023-02-13T00:04:55.463Z,62.40
2023-02-13T00:09:57.628Z,63.00
2023-02-13T00:15:00.384Z,62.75
2023-02-13T00:20:02.295Z,63.21
2023-02-13T00:25:05.920Z,63.08
2023-02-13T00:30:08.703Z,63.45
2023-02-13T00:35:10.605Z,63.46
2023-02-13T00:40:12.870Z,63.59
2023-02-13T00:45:14.707Z,64.14
2023-02-13T00:50:16.661Z,64.21
2023-02-13T00:55:18.488Z,63.65
2023-02-13T01:00:20.684Z,63.90
2023-02-13T01:05:23.092Z,64.20
2023-02-13T01:10:25.108Z,64.69
2023-02-13T01:15:27.053Z,64.38
2023-02-13T01:20:30.511Z,64.80
2023-02-13T01:25:32.376Z,64.95
2023-02-13T01:30:34.928Z,64.72
2023-02-13T01:35:40.170Z,64.92
2023-02-13T01:40:47.656Z,65.14
2023-02-13T01:45:53.736Z,65.16
2023-02-13T01:51:00.993Z,65.08
2023-02-13T01:56:09.503Z,65.51
2023-02-13T02:01:11.938Z,65.00
2023-02-13T02:06:25.674Z,65.31
2023-02-13T02:11:36.225Z,64.84
2023-02-13T02:16:39.852Z,64.50
2023-02-13T02:22:00.454Z,64.65
2023-02-13T02:27:15.297Z,64.23
2023-02-13T02:32:34.309Z,64.41
2023-02-13T02:37:53.057Z,63.79
2023-02-13T02:43:13.943Z,64.00
2023-02-13T02:49:07.573Z,64.25
2023-02-13T02:54:53.417Z,64.49
2023-02-13T03:00:16.001Z,64.51
2023-02-13T03:05:41.877Z,64.46
2023-02-13T03:11:02.616Z,64.39
2023-02-13T03:16:23.757Z,64.29
2023-02-13T03:22:02.395Z,64.16
2023-02-13T03:27:57.610Z,63.97
2023-02-13T03:33:24.705Z,64.02
2023-02-13T03:39:00.420Z,64.35
2023-02-13T03:44:13.754Z,64.05
2023-02-13T03:49:57.459Z,63.56
2023-02-13T03:55:23.482Z,63.88
2023-02-13T04:00:30.626Z,63.47
2023-02-13T04:05:37.082Z,63.26
2023-02-13T04:10:50.586Z,63.53
2023-02-13T04:16:42.193Z,63.76
2023-02-13T04:21:43.959Z,64.19
2023-02-13T04:26:46.367Z,63.72
2023-02-13T04:31:48.542Z,64.05
2023-02-13T04:36:50.462Z,63.99
2023-02-13T04:41:52.292Z,63.68
2023-02-13T04:46:54.105Z,63.17
2023-02-13T04:51:56.205Z,63.85
2023-02-13T04:56:58.082Z,63.71
2023-02-13T05:01:59.969Z,63.61
2023-02-13T05:07:01.821Z,63.01
2023-02-13T05:12:03.946Z,63.31
2023-02-13T05:17:06.035Z,63.72
2023-02-13T05:22:28.604Z,63.28
2023-02-13T05:27:30.425Z,63.46
2023-02-13T05:32:32.261Z,64.18
2023-02-13T05:37:34.124Z,64.13
2023-02-13T05:42:36.209Z,63.77
2023-02-13T05:47:38.079Z,63.85
2023-02-13T05:52:39.915Z,64.25
2023-02-13T05:57:41.742Z,63.71
2023-02-13T06:02:43.701Z,63.94
2023-02-13T06:07:45.607Z,63.56
2023-02-13T06:12:47.432Z,64.11
2023-02-13T06:17:49.258Z,63.21
2023-02-13T06:22:52.351Z,63.16
2023-02-13T06:27:54.528Z,63.26
2023-02-13T06:32:56.462Z,64.18
2023-02-13T06:37:58.454Z,64.18
2023-02-13T06:43:00.394Z,63.82
2023-02-13T06:48:02.257Z,64.35
2023-02-13T06:53:04.148Z,63.63
2023-02-13T06:58:06.494Z,63.80
2023-02-13T07:03:10.082Z,64.17
2023-02-13T07:08:12.902Z,63.94
2023-02-13T07:13:14.775Z,64.45
2023-02-13T07:18:16.617Z,64.14
2023-02-13T07:23:18.510Z,64.12
2023-02-13T07:28:20.442Z,64.36
2023-02-13T07:33:23.013Z,64.37
2023-02-13T07:38:24.878Z,64.13
2023-02-13T07:43:27.291Z,63.71
2023-02-13T07:48:29.751Z,64.58
2023-02-13T07:53:32.404Z,64.38
2023-02-13T07:58:34.312Z,64.11
2023-02-13T08:03:36.323Z,64.52
2023-02-13T08:08:38.963Z,64.44
2023-02-13T08:13:41.804Z,64.25
2023-02-13T08:18:43.677Z,63.97
2023-02-13T08:23:45.542Z,64.03
2023-02-13T08:28:47.466Z,63.44
2023-02-13T08:33:49.303Z,63.56
2023-02-13T08:38:51.307Z,63.91
2023-02-13T08:43:54.375Z,63.92
2023-02-13T08:48:56.267Z,64.23
2023-02-13T08:53:58.088Z,63.70
2023-02-13T08:59:00.040Z,64.32
2023-02-13T09:04:01.906Z,64.25
2023-02-13T09:09:05.351Z,64.08
2023-02-13T09:14:07.531Z,64.22
2023-02-13T09:19:09.414Z,64.48
2023-02-13T09:24:11.478Z,64.41
2023-02-13T09:29:13.383Z,63.71
2023-02-13T09:34:15.272Z,64.43
2023-02-13T09:39:17.137Z,64.05
2023-02-13T09:44:34.169Z,64.15
2023-02-13T09:49:40.735Z,64.70
2023-02-13T09:54:42.774Z,64.55
2023-02-13T09:59:57.513Z,64.26
2023-02-13T10:05:19.275Z,64.54
2023-02-13T10:10:32.934Z,64.18
2023-02-13T10:15:40.316Z,64.31
2023-02-13T10:20:55.990Z,64.08
2023-02-13T10:26:03.949Z,64.02
2023-02-13T10:31:12.826Z,64.23
2023-02-13T10:36:28.589Z,64.72
2023-02-13T10:41:30.353Z,64.65
2023-02-13T11:26:12.069Z,61.76
2023-02-13T11:31:22.960Z,62.27
2023-02-13T11:36:33.809Z,61.99
2023-02-13T11:41:43.825Z,61.82
2023-02-13T11:46:51.277Z,61.09
2023-02-13T11:51:56.118Z,60.90
2023-02-13T11:57:05.508Z,62.96
2023-02-13T12:02:14.192Z,62.73
2023-02-13T12:07:26.758Z,62.13
2023-02-13T12:12:56.500Z,60.59
2023-02-13T12:18:09.529Z,60.30
2023-02-13T12:23:27.456Z,60.37
2023-02-13T12:28:58.189Z,60.02
2023-02-13T12:34:09.060Z,59.53
2023-02-13T12:39:40.402Z,59.30
2023-02-13T12:45:00.604Z,59.02
2023-02-13T12:50:30.184Z,59.25
2023-02-13T12:55:31.946Z,59.26
2023-02-13T13:01:01.788Z,58.96
2023-02-13T13:06:22.713Z,58.85
2023-02-13T13:12:12.219Z,59.19
2023-02-13T13:17:22.958Z,58.49
2023-02-13T13:22:38.838Z,58.58
2023-02-13T13:27:45.723Z,58.47
2023-02-13T13:32:54.861Z,57.80
2023-02-13T13:38:08.686Z,58.23
2023-02-13T13:43:37.610Z,58.16
2023-02-13T13:49:01.427Z,57.57
2023-02-13T13:54:03.203Z,57.82
2023-02-13T13:59:17.437Z,57.84
2023-02-13T14:04:43.586Z,57.72
2023-02-13T14:09:46.254Z,57.33
2023-02-13T14:14:48.250Z,57.92
2023-02-13T14:19:53.279Z,57.43
2023-02-13T14:24:58.466Z,57.57
2023-02-13T14:30:01.544Z,57.33
2023-02-13T14:35:12.716Z,57.34
2023-02-13T14:40:17.754Z,57.34
2023-02-13T14:45:27.398Z,58.01
2023-02-13T14:50:46.026Z,57.55
2023-02-13T14:55:54.006Z,57.37
2023-02-13T15:06:44.510Z,60.08
2023-02-13T15:11:47.487Z,58.84
2023-02-13T15:16:54.834Z,58.78
2023-02-13T15:22:02.079Z,58.93
2023-02-13T15:27:07.594Z,58.80
2023-02-13T15:53:16.913Z,63.23
2023-02-13T15:58:18.916Z,62.22
2023-02-13T16:03:21.106Z,61.07
2023-02-13T16:08:36.106Z,60.60
2023-02-13T16:13:38.125Z,60.21
2023-02-13T16:18:40.952Z,59.83
2023-02-13T16:23:45.398Z,60.64
2023-02-13T16:28:47.749Z,59.72
2023-02-13T16:33:49.735Z,60.39
2023-02-13T16:38:51.667Z,60.84
2023-02-13T16:43:58.600Z,61.35
2023-02-13T16:49:03.682Z,60.72
2023-02-13T16:54:11.439Z,60.90
2023-02-13T16:59:22.516Z,60.73
2023-02-13T17:04:25.468Z,60.49
2023-02-13T17:09:27.346Z,61.25
2023-02-13T17:14:29.172Z,61.00
2023-02-13T17:19:31.036Z,60.92
2023-02-13T17:24:33.095Z,61.23
2023-02-13T17:29:34.918Z,60.94
2023-02-13T17:34:36.774Z,61.60
2023-02-13T17:39:39.193Z,60.82
2023-02-13T17:44:41.029Z,61.36
2023-02-13T17:49:42.916Z,61.01
2023-02-13T17:54:45.517Z,61.23
2023-02-13T17:59:48.015Z,61.00
2023-02-13T18:04:51.109Z,60.79
2023-02-13T18:09:52.970Z,61.42
2023-02-13T18:14:55.039Z,61.35
2023-02-13T18:19:58.085Z,61.72
2023-02-13T18:25:01.406Z,60.76
2023-02-13T18:30:03.964Z,61.09
2023-02-13T18:35:07.483Z,61.40
2023-02-13T18:40:10.157Z,61.77
2023-02-13T18:45:12.417Z,61.57
2023-02-13T18:50:14.280Z,61.50
2023-02-13T18:55:16.840Z,61.24
2023-02-13T19:00:22.668Z,61.49
2023-02-13T19:05:24.981Z,61.26
2023-02-13T19:10:27.255Z,61.70
2023-02-13T19:15:29.139Z,61.39
2023-02-13T19:20:31.501Z,61.10
2023-02-13T19:25:38.446Z,61.28
2023-02-13T19:30:40.536Z,61.53
2023-02-13T19:35:43.301Z,61.66
2023-02-13T19:40:46.149Z,61.05
2023-02-13T19:45:48.080Z,60.92
2023-02-13T19:50:49.906Z,61.03
2023-02-13T19:55:59.654Z,60.96
2023-02-13T20:01:16.388Z,60.92
2023-02-13T20:06:28.321Z,61.03
2023-02-13T20:11:30.206Z,61.11
2023-02-13T20:16:35.191Z,61.39
2023-02-13T20:21:37.918Z,60.79
2023-02-13T20:26:40.722Z,61.04
2023-02-13T20:31:42.745Z,60.65
2023-02-13T20:36:45.171Z,60.32
2023-02-13T20:41:50.441Z,60.88
2023-02-13T20:46:53.172Z,60.76
2023-02-13T20:51:55.785Z,60.54
2023-02-13T20:56:57.638Z,61.21
2023-02-13T21:01:59.677Z,60.76
2023-02-13T21:07:01.596Z,60.79
2023-02-13T21:12:06.001Z,60.33
2023-02-13T21:17:09.697Z,60.67
2023-02-13T21:22:12.216Z,60.65
2023-02-13T21:27:14.340Z,61.10
2023-02-13T21:32:16.231Z,60.47
2023-02-13T21:37:18.112Z,60.54
2023-02-13T21:42:20.272Z,60.13
2023-02-13T21:47:22.148Z,60.14
2023-02-13T21:52:24.220Z,60.20
2023-02-13T21:57:26.138Z,60.84
2023-02-13T22:02:28.873Z,60.50
2023-02-13T22:07:30.776Z,60.47
2023-02-13T22:12:32.642Z,60.45
2023-02-13T22:17:36.860Z,60.22
2023-02-13T22:22:38.697Z,59.94
2023-02-13T22:27:49.096Z,60.16
2023-02-13T22:32:50.914Z,60.15
2023-02-13T22:37:52.734Z,60.19
2023-02-13T22:42:54.547Z,60.19
2023-02-13T22:47:56.459Z,60.80
2023-02-13T22:52:58.464Z,60.07
2023-02-13T22:58:00.285Z,60.48
2023-02-13T23:03:02.092Z,60.58
2023-02-13T23:08:04.035Z,60.47
2023-02-13T23:13:10.608Z,60.65
2023-02-13T23:18:15.584Z,60.05
2023-02-13T23:23:17.701Z,60.11
2023-02-13T23:28:19.471Z,59.81
2023-02-13T23:33:21.650Z,59.75
2023-02-13T23:38:23.932Z,59.70
2023-02-13T23:43:25.702Z,59.96
2023-02-13T23:48:27.471Z,59.71
2023-02-13T23:53:29.366Z,59.96
2023-02-13T23:58:31.154Z,60.12
